Akanu Ibiam International Airport

Airport
ICAO code: 
DNEN
IATA Code: 
ENU
Summary
ICAO Region: 
AFI
Territory: 
Location: 
Emene, Enugu State
Serving: 
Enugu
Elevation: 
466 ft
Coordinates: 
Aerial View: 
6° 28' 31.656" N, 7° 33' 42.876" E
Metar
Observation
DNEN 051000Z 25005KT 3000 HZ NSC 32/22 Q1011 NOSIG
Station
Enugu
Date/Time
2021-12-05 10:00:00
Wind direction
250°
Wind speed
05 kts
Lowest cloud amount
nil significant cloud
Temperature
32°C
Dew point
22°C
Humidity
55%
QNH
1011 hPa
Weather condition
n/a

Akanu Ibiam International Airport, also known as Enugu Airport, is an airport serving Enugu, a city in the Enugu State of Nigeria.

Climatology

Tropical Savanna climate (Köppen climate classification Aw)

Runways

Designator Length Width Surface Rops
8/26 2402 45 ASP No/No
Airport map: 
Aerial View: 

SKYbrary Partners:

Safety knowledge contributed by: